createdAt,value
2019-04-23T00:00:56.000Z,0
2019-04-23T00:02:08.240Z,0
2019-04-23T00:03:20.000Z,0
2019-04-23T00:04:32.629Z,0
2019-04-23T00:05:44.000Z,0
2019-04-23T00:06:57.000Z,0
2019-04-23T00:08:09.217Z,0
2019-04-23T00:09:21.000Z,0
2019-04-23T00:11:45.000Z,0
2019-04-23T00:12:57.000Z,0
2019-04-23T00:14:10.151Z,0
2019-04-23T00:15:22.000Z,0
2019-04-23T00:16:34.000Z,0
2019-04-23T00:17:46.732Z,0
2019-04-23T00:18:58.000Z,0
2019-04-23T00:20:11.115Z,0
2019-04-23T00:21:23.000Z,0
2019-04-23T00:23:47.000Z,0
2019-04-23T00:24:59.000Z,0
2019-04-23T00:26:12.000Z,0
2019-04-23T00:27:24.000Z,0
2019-04-23T00:28:36.453Z,0
2019-04-23T00:29:48.000Z,0
2019-04-23T00:31:00.841Z,0
2019-04-23T00:32:13.026Z,0
2019-04-23T00:33:25.000Z,0
2019-04-23T00:34:37.000Z,0
2019-04-23T00:35:49.592Z,0
2019-04-23T00:37:01.000Z,0
2019-04-23T00:38:13.985Z,0
2019-04-23T00:39:26.000Z,0
2019-04-23T00:40:38.000Z,0
2019-04-23T00:41:50.000Z,0
2019-04-23T00:43:02.743Z,0
2019-04-23T00:44:14.093Z,0
2019-04-23T00:45:27.000Z,0
2019-04-23T00:46:39.000Z,0
2019-04-23T00:47:51.000Z,0
2019-04-23T00:49:03.000Z,0
2019-04-23T00:50:15.000Z,0
2019-04-23T00:51:28.000Z,0
2019-04-23T00:52:40.279Z,0
2019-04-23T00:53:52.000Z,0
2019-04-23T00:55:04.000Z,0
2019-04-23T00:56:16.877Z,0
2019-04-23T00:57:29.000Z,0
2019-04-23T00:58:41.000Z,0
2019-04-23T00:59:53.043Z,0
2019-04-23T01:01:05.000Z,0
2019-04-23T01:02:17.826Z,0
2019-04-23T01:03:29.000Z,0
2019-04-23T01:04:42.191Z,0
2019-04-23T01:05:54.000Z,0
2019-04-23T01:07:06.000Z,0
2019-04-23T01:08:18.770Z,0
2019-04-23T01:09:30.000Z,0
2019-04-23T01:10:43.000Z,0
2019-04-23T01:11:55.341Z,0
2019-04-23T01:13:07.000Z,0
2019-04-23T01:14:19.726Z,0
2019-04-23T01:15:31.000Z,0
2019-04-23T01:16:44.000Z,0
2019-04-23T01:17:56.000Z,0
2019-04-23T01:19:08.490Z,0
2019-04-23T01:20:20.067Z,0
2019-04-23T01:21:32.891Z,0
2019-04-23T01:22:45.000Z,0
2019-04-23T01:23:57.000Z,0
2019-04-23T01:25:09.000Z,0
2019-04-23T01:26:21.000Z,0
2019-04-23T01:27:33.000Z,0
2019-04-23T01:28:46.000Z,0
2019-04-23T01:29:58.000Z,0
2019-04-23T01:31:10.000Z,0
2019-04-23T01:32:22.599Z,0
2019-04-23T01:33:34.793Z,0
2019-04-23T01:34:46.000Z,0
2019-04-23T01:35:59.021Z,0
2019-04-23T01:37:11.000Z,0
2019-04-23T01:38:23.000Z,0
2019-04-23T01:39:35.000Z,0
2019-04-23T01:40:47.000Z,0
2019-04-23T01:42:00.126Z,0
2019-04-23T01:43:12.000Z,0
2019-04-23T01:44:24.509Z,0
2019-04-23T01:45:36.000Z,0
2019-04-23T01:46:48.000Z,0
2019-04-23T01:48:01.086Z,0
2019-04-23T01:49:13.000Z,0
2019-04-23T01:50:25.000Z,0
2019-04-23T01:51:37.000Z,0
2019-04-23T01:52:49.000Z,0
2019-04-23T01:54:02.000Z,0
2019-04-23T01:55:14.243Z,0
2019-04-23T01:56:26.433Z,0
2019-04-23T01:57:38.000Z,0
2019-04-23T01:58:50.000Z,0
2019-04-23T02:00:02.000Z,0
2019-04-23T02:01:15.000Z,0
2019-04-23T02:02:27.386Z,0
2019-04-23T02:03:39.000Z,0
2019-04-23T02:04:51.773Z,0
2019-04-23T02:06:03.000Z,0
2019-04-23T02:07:16.000Z,0
2019-04-23T02:08:28.346Z,0
2019-04-23T02:09:40.544Z,0
2019-04-23T02:12:04.000Z,0
2019-04-23T02:13:17.000Z,0
2019-04-23T02:14:29.000Z,0
2019-04-23T02:15:41.000Z,0
2019-04-23T02:16:53.674Z,0
2019-04-23T02:18:05.000Z,0
2019-04-23T02:19:18.064Z,0
2019-04-23T02:20:30.000Z,0
2019-04-23T02:21:42.000Z,0
2019-04-23T02:22:54.000Z,0
2019-04-23T02:24:06.829Z,0
2019-04-23T02:25:18.000Z,0
2019-04-23T02:26:31.211Z,0
2019-04-23T02:27:43.000Z,0
2019-04-23T02:28:55.000Z,0
2019-04-23T02:30:07.000Z,0
2019-04-23T02:31:19.000Z,0
2019-04-23T02:32:32.167Z,0
2019-04-23T02:33:44.000Z,0
2019-04-23T02:34:56.000Z,0
2019-04-23T02:36:08.000Z,0
2019-04-23T02:37:20.000Z,0
2019-04-23T02:38:33.130Z,0
2019-04-23T02:39:45.000Z,0
2019-04-23T02:40:57.000Z,0
2019-04-23T02:42:09.703Z,0
2019-04-23T02:43:21.091Z,0
2019-04-23T02:44:34.089Z,0
2019-04-23T02:45:46.000Z,0
2019-04-23T02:46:58.000Z,0
2019-04-23T02:48:10.000Z,0
2019-04-23T02:49:22.000Z,0
2019-04-23T02:51:47.000Z,0
2019-04-23T02:52:59.423Z,0
2019-04-23T02:54:11.622Z,0
2019-04-23T02:55:23.000Z,0
2019-04-23T02:56:36.005Z,0
2019-04-23T02:57:48.190Z,0
2019-04-23T02:59:00.000Z,0
2019-04-23T03:00:12.000Z,0
2019-04-23T03:01:24.000Z,0
2019-04-23T03:02:36.968Z,0
2019-04-23T03:03:49.000Z,0
2019-04-23T03:05:01.000Z,0
2019-04-23T03:06:13.000Z,0
2019-04-23T03:07:25.723Z,0
2019-04-23T03:08:37.931Z,0
2019-04-23T03:09:50.000Z,0
2019-04-23T03:11:02.000Z,0
2019-04-23T03:12:14.000Z,0
2019-04-23T03:13:26.000Z,0
2019-04-23T03:14:38.000Z,0
2019-04-23T03:15:51.000Z,0
2019-04-23T03:17:03.000Z,0
2019-04-23T03:18:15.000Z,0
2019-04-23T03:19:27.000Z,0
2019-04-23T03:20:39.981Z,0
2019-04-23T03:21:52.166Z,0
2019-04-23T03:23:04.000Z,0
2019-04-23T03:24:16.000Z,0
2019-04-23T03:25:28.000Z,0
2019-04-23T03:26:40.000Z,0
2019-04-23T03:27:53.000Z,0
2019-04-23T03:29:05.000Z,0
2019-04-23T03:30:17.520Z,0
2019-04-23T03:31:29.000Z,0
2019-04-23T03:32:41.891Z,0
2019-04-23T03:33:54.085Z,0
2019-04-23T03:35:06.000Z,0
2019-04-23T03:36:18.000Z,0
2019-04-23T03:37:30.000Z,0
2019-04-23T03:38:42.843Z,0
2019-04-23T03:39:55.000Z,0
2019-04-23T03:41:07.023Z,0
2019-04-23T03:42:19.000Z,0
2019-04-23T03:43:31.612Z,0
2019-04-23T03:44:43.809Z,5
2019-04-23T03:45:55.000Z,5
2019-04-23T03:48:20.000Z,5
2019-04-23T03:49:32.000Z,5
2019-04-23T03:50:44.000Z,5
2019-04-23T03:51:56.000Z,11
2019-04-23T03:53:09.150Z,11
2019-04-23T03:54:21.000Z,11
2019-04-23T03:55:33.000Z,11
2019-04-23T03:56:45.724Z,16
2019-04-23T03:57:57.910Z,16
2019-04-23T04:00:22.000Z,16
2019-04-23T04:01:34.000Z,22
2019-04-23T04:02:46.000Z,22
2019-04-23T04:03:58.000Z,22
2019-04-23T04:05:11.000Z,28
2019-04-23T04:06:23.000Z,28
2019-04-23T04:07:35.000Z,28
2019-04-23T04:08:47.638Z,33
2019-04-23T04:09:59.000Z,33
2019-04-23T04:11:11.000Z,33
2019-04-23T04:12:24.000Z,39
2019-04-23T04:13:36.000Z,39
2019-04-23T04:14:48.000Z,39
2019-04-23T04:16:00.000Z,45
2019-04-23T04:17:12.000Z,45
2019-04-23T04:18:25.000Z,45
2019-04-23T04:19:37.000Z,50
2019-04-23T04:20:49.546Z,50
2019-04-23T04:22:01.739Z,56
2019-04-23T04:23:13.000Z,56
2019-04-23T04:24:26.138Z,56
2019-04-23T04:25:38.000Z,61
2019-04-23T04:26:50.507Z,61
2019-04-23T04:28:02.000Z,67
2019-04-23T04:29:14.000Z,67
2019-04-23T04:30:27.000Z,90
2019-04-23T04:31:39.000Z,135
2019-04-23T04:32:51.466Z,157
2019-04-23T04:34:03.000Z,163
2019-04-23T04:35:15.000Z,168
2019-04-23T04:36:28.000Z,168
2019-04-23T04:37:40.000Z,168
2019-04-23T04:38:52.000Z,174
2019-04-23T04:40:04.000Z,180
2019-04-23T04:41:16.000Z,185
2019-04-23T04:42:28.990Z,191
2019-04-23T04:43:41.000Z,202
2019-04-23T04:44:53.038Z,208
2019-04-23T04:46:05.000Z,213
2019-04-23T04:47:17.000Z,225
2019-04-23T04:48:29.000Z,230
2019-04-23T04:49:42.000Z,236
2019-04-23T04:50:54.000Z,241
2019-04-23T04:52:06.000Z,253
2019-04-23T04:53:18.000Z,270
2019-04-23T04:54:30.000Z,264
2019-04-23T04:55:43.000Z,264
2019-04-23T04:56:55.000Z,264
2019-04-23T04:58:07.000Z,281
2019-04-23T04:59:19.000Z,275
2019-04-23T05:00:31.000Z,191
2019-04-23T05:01:44.000Z,123
2019-04-23T05:02:56.000Z,123
2019-04-23T05:04:08.000Z,123
2019-04-23T05:05:20.000Z,129
2019-04-23T05:06:32.000Z,129
2019-04-23T05:07:45.000Z,129
2019-04-23T05:08:57.206Z,129
2019-04-23T05:10:09.000Z,135
2019-04-23T05:11:21.000Z,135
2019-04-23T05:12:33.000Z,135
2019-04-23T05:13:45.000Z,135
2019-04-23T05:14:58.000Z,135
2019-04-23T05:16:10.000Z,140
2019-04-23T05:17:22.000Z,140
2019-04-23T05:18:34.074Z,140
2019-04-23T05:19:46.000Z,140
2019-04-23T05:20:59.123Z,146
2019-04-23T05:22:11.321Z,146
2019-04-23T05:23:23.000Z,146
2019-04-23T05:24:35.000Z,146
2019-04-23T05:25:47.000Z,146
2019-04-23T05:27:00.000Z,151
2019-04-23T05:28:12.000Z,151
2019-04-23T05:29:24.000Z,157
2019-04-23T05:30:36.000Z,151
2019-04-23T05:31:48.000Z,157
2019-04-23T05:33:01.039Z,157
2019-04-23T05:34:13.228Z,157
2019-04-23T05:35:25.000Z,163
2019-04-23T05:36:37.067Z,157
2019-04-23T05:37:49.000Z,163
2019-04-23T05:40:14.000Z,163
2019-04-23T05:41:26.000Z,163
2019-04-23T05:42:38.057Z,168
2019-04-23T05:43:50.000Z,168
2019-04-23T05:45:02.095Z,168
2019-04-23T05:46:15.146Z,168
2019-04-23T05:47:27.000Z,168
2019-04-23T05:48:39.000Z,174
2019-04-23T05:49:51.000Z,174
2019-04-23T05:51:03.000Z,174
2019-04-23T05:52:16.000Z,174
2019-04-23T05:53:28.000Z,174
2019-04-23T05:54:40.000Z,174
2019-04-23T05:55:52.000Z,174
2019-04-23T05:57:04.871Z,180
2019-04-23T05:58:17.000Z,180
2019-04-23T05:59:29.000Z,180
2019-04-23T06:00:41.440Z,180
2019-04-23T06:01:53.000Z,180
2019-04-23T06:03:05.000Z,185
2019-04-23T06:04:17.000Z,185
2019-04-23T06:06:42.398Z,185
2019-04-23T06:07:54.593Z,185
2019-04-23T06:09:06.000Z,185
2019-04-23T06:10:18.975Z,191
2019-04-23T06:11:31.195Z,191
2019-04-23T06:12:43.000Z,191
2019-04-23T06:13:55.000Z,191
2019-04-23T06:15:07.000Z,191
2019-04-23T06:16:19.000Z,191
2019-04-23T06:17:32.121Z,191
2019-04-23T06:18:44.314Z,196
2019-04-23T06:19:56.000Z,196
2019-04-23T06:21:08.693Z,196
2019-04-23T06:22:20.888Z,196
2019-04-23T06:24:45.000Z,202
2019-04-23T06:25:57.000Z,202
2019-04-23T06:27:09.000Z,202
2019-04-23T06:28:21.000Z,202
2019-04-23T06:29:34.000Z,202
2019-04-23T06:30:46.002Z,202
2019-04-23T06:31:58.000Z,208
2019-04-23T06:33:10.000Z,202
2019-04-23T06:34:22.000Z,208
2019-04-23T06:36:47.194Z,208
2019-04-23T06:37:59.376Z,208
2019-04-23T06:39:11.000Z,208
2019-04-23T06:40:23.000Z,208
2019-04-23T06:41:35.000Z,213
2019-04-23T06:42:48.150Z,213
2019-04-23T06:44:00.000Z,213
2019-04-23T06:45:12.533Z,219
2019-04-23T06:46:24.000Z,213
2019-04-23T06:47:36.000Z,219
2019-04-23T06:48:49.000Z,219
2019-04-23T06:50:01.000Z,225
2019-04-23T06:51:13.000Z,225
2019-04-23T06:52:25.000Z,225
2019-04-23T06:53:37.000Z,225
2019-04-23T06:54:50.068Z,230
2019-04-23T06:56:02.000Z,230
2019-04-23T06:57:14.448Z,241
2019-04-23T06:58:26.000Z,241
2019-04-23T07:00:50.000Z,241
2019-04-23T07:02:03.000Z,247
2019-04-23T07:03:15.000Z,247
2019-04-23T07:04:27.000Z,247
2019-04-23T07:05:39.784Z,247
2019-04-23T07:06:51.975Z,253
2019-04-23T07:08:04.000Z,253
2019-04-23T07:09:16.036Z,253
2019-04-23T07:10:28.000Z,253
2019-04-23T07:11:40.000Z,258
2019-04-23T07:12:52.985Z,264
2019-04-23T07:14:05.000Z,264
2019-04-23T07:15:17.000Z,270
2019-04-23T07:16:29.000Z,270
2019-04-23T07:17:41.000Z,275
2019-04-23T07:18:53.000Z,275
2019-04-23T07:20:06.000Z,275
2019-04-23T07:21:18.000Z,281
2019-04-23T07:22:30.000Z,286
2019-04-23T07:24:54.000Z,292
2019-04-23T07:26:07.000Z,292
2019-04-23T07:27:19.000Z,292
2019-04-23T07:28:31.000Z,298
2019-04-23T07:29:43.000Z,303
2019-04-23T07:30:55.804Z,309
2019-04-23T07:32:07.000Z,315
2019-04-23T07:33:20.189Z,320
2019-04-23T07:34:32.000Z,326
2019-04-23T07:35:44.000Z,326
2019-04-23T07:36:56.756Z,320
2019-04-23T07:38:08.000Z,320
2019-04-23T07:39:21.000Z,320
2019-04-23T07:40:33.000Z,320
2019-04-23T07:41:45.000Z,326
2019-04-23T07:42:57.721Z,320
2019-04-23T07:44:09.000Z,320
2019-04-23T07:45:22.098Z,315
2019-04-23T07:46:34.000Z,315
2019-04-23T07:47:46.000Z,315
2019-04-23T07:48:58.000Z,315
2019-04-23T07:50:10.000Z,315
2019-04-23T07:51:23.000Z,320
2019-04-23T07:52:35.000Z,326
2019-04-23T07:53:47.000Z,326
2019-04-23T07:54:59.646Z,331
2019-04-23T07:56:11.000Z,337
2019-04-23T07:57:24.022Z,337
2019-04-23T07:58:36.000Z,337
2019-04-23T07:59:48.000Z,337
2019-04-23T08:01:00.000Z,331
2019-04-23T08:02:12.000Z,331
2019-04-23T08:03:24.993Z,331
2019-04-23T08:04:37.000Z,326
2019-04-23T08:05:49.000Z,326
2019-04-23T08:07:01.000Z,320
2019-04-23T08:08:13.000Z,315
2019-04-23T08:09:25.961Z,320
2019-04-23T08:10:38.155Z,315
2019-04-23T08:11:50.000Z,315
2019-04-23T08:13:02.000Z,315
2019-04-23T08:14:14.000Z,315
2019-04-23T08:15:26.000Z,320
2019-04-23T08:16:39.000Z,315
2019-04-23T08:17:51.000Z,315
2019-04-23T08:19:03.500Z,315
2019-04-23T08:20:15.698Z,315
2019-04-23T08:21:27.883Z,315
2019-04-23T08:22:40.000Z,315
2019-04-23T08:23:52.000Z,315
2019-04-23T08:25:04.462Z,309
2019-04-23T08:26:16.683Z,303
2019-04-23T08:27:28.000Z,303
2019-04-23T08:28:41.000Z,298
2019-04-23T08:29:53.000Z,292
2019-04-23T08:31:05.441Z,286
2019-04-23T08:32:17.000Z,286
2019-04-23T08:33:29.819Z,281
2019-04-23T08:34:41.000Z,275
2019-04-23T08:35:54.000Z,270
2019-04-23T08:37:06.000Z,264
2019-04-23T08:38:18.000Z,264
2019-04-23T08:39:30.000Z,258
2019-04-23T08:40:42.000Z,258
2019-04-23T08:41:55.000Z,253
2019-04-23T08:43:07.000Z,258
2019-04-23T08:44:19.000Z,258
2019-04-23T08:45:31.755Z,258
2019-04-23T08:46:43.000Z,253
2019-04-23T08:47:56.000Z,253
2019-04-23T08:50:20.000Z,253
2019-04-23T08:51:32.000Z,253
2019-04-23T08:52:44.000Z,253
2019-04-23T08:53:57.096Z,253
2019-04-23T08:55:09.297Z,253
2019-04-23T08:56:21.507Z,253
2019-04-23T08:57:33.000Z,253
2019-04-23T08:58:45.000Z,253
2019-04-23T08:59:58.000Z,253
2019-04-23T09:01:10.000Z,253
2019-04-23T09:02:22.000Z,247
2019-04-23T09:03:34.000Z,247
2019-04-23T09:04:46.000Z,247
2019-04-23T09:05:59.000Z,247
2019-04-23T09:07:11.216Z,247
2019-04-23T09:08:23.416Z,247
2019-04-23T09:09:35.609Z,247
2019-04-23T09:10:47.000Z,247
2019-04-23T09:11:59.000Z,247
2019-04-23T09:13:12.000Z,247
2019-04-23T09:14:24.000Z,247
2019-04-23T09:15:36.000Z,253
2019-04-23T09:16:48.000Z,247
2019-04-23T09:18:00.000Z,247
2019-04-23T09:19:13.000Z,247
2019-04-23T09:20:25.000Z,253
2019-04-23T09:21:37.534Z,253
2019-04-23T09:22:49.746Z,258
2019-04-23T09:24:01.000Z,253
2019-04-23T09:25:14.114Z,253
2019-04-23T09:26:26.000Z,258
2019-04-23T09:27:38.000Z,253
2019-04-23T09:28:50.000Z,253
2019-04-23T09:30:02.892Z,253
2019-04-23T09:31:15.081Z,253
2019-04-23T09:32:27.000Z,253
2019-04-23T09:33:39.468Z,253
2019-04-23T09:34:51.000Z,253
2019-04-23T09:36:03.000Z,253
2019-04-23T09:37:16.046Z,253
2019-04-23T09:38:28.000Z,253
2019-04-23T09:39:40.000Z,253
2019-04-23T09:40:52.000Z,253
2019-04-23T09:42:04.000Z,253
2019-04-23T09:43:17.001Z,258
2019-04-23T09:44:29.000Z,253
2019-04-23T09:45:41.396Z,253
2019-04-23T09:46:53.000Z,253
2019-04-23T09:48:05.000Z,253
2019-04-23T09:49:17.000Z,253
2019-04-23T09:50:30.000Z,258
2019-04-23T09:51:42.415Z,258
2019-04-23T09:52:54.000Z,258
2019-04-23T09:54:06.756Z,258
2019-04-23T09:55:18.000Z,258
2019-04-23T09:56:31.000Z,258
2019-04-23T09:57:43.000Z,258
2019-04-23T09:58:55.000Z,258
2019-04-23T10:00:07.000Z,258
2019-04-23T10:01:19.000Z,258
2019-04-23T10:02:32.000Z,264
2019-04-23T10:03:44.292Z,264
2019-04-23T10:04:56.000Z,264
2019-04-23T10:06:08.681Z,264
2019-04-23T10:07:20.879Z,264
2019-04-23T10:08:33.000Z,264
2019-04-23T10:09:45.261Z,270
2019-04-23T10:10:57.000Z,270
2019-04-23T10:12:09.000Z,270
2019-04-23T10:13:22.571Z,270
2019-04-23T10:14:34.044Z,275
2019-04-23T10:15:46.000Z,275
2019-04-23T10:16:58.000Z,275
2019-04-23T10:18:10.000Z,275
2019-04-23T10:19:22.000Z,275
2019-04-23T10:20:34.995Z,281
2019-04-23T10:21:47.282Z,281
2019-04-23T10:22:59.482Z,281
2019-04-23T10:24:11.000Z,286
2019-04-23T10:26:35.960Z,286
2019-04-23T10:27:48.151Z,286
2019-04-23T10:29:00.000Z,286
2019-04-23T10:30:12.000Z,292
2019-04-23T10:31:24.000Z,292
2019-04-23T10:32:36.000Z,292
2019-04-23T10:33:49.122Z,292
2019-04-23T10:35:01.000Z,292
2019-04-23T10:36:13.000Z,292
2019-04-23T10:37:25.000Z,292
2019-04-23T10:38:37.000Z,292
2019-04-23T10:39:50.000Z,298
2019-04-23T10:41:02.000Z,298
2019-04-23T10:42:14.000Z,298
2019-04-23T10:43:26.801Z,298
2019-04-23T10:44:38.000Z,298
2019-04-23T10:45:51.187Z,303
2019-04-23T10:47:03.383Z,303
2019-04-23T10:48:15.000Z,303
2019-04-23T10:49:27.000Z,309
2019-04-23T10:50:39.000Z,309
2019-04-23T10:51:52.150Z,309
2019-04-23T10:53:04.000Z,309
2019-04-23T10:54:16.000Z,309
2019-04-23T10:55:28.733Z,315
2019-04-23T10:56:40.000Z,315
2019-04-23T10:57:53.000Z,320
2019-04-23T10:59:05.000Z,320
2019-04-23T11:00:17.000Z,320
2019-04-23T11:01:29.000Z,320
2019-04-23T11:02:41.000Z,326
2019-04-23T11:03:54.000Z,326
2019-04-23T11:05:06.000Z,326
2019-04-23T11:06:18.000Z,331
2019-04-23T11:07:30.727Z,320
2019-04-23T11:08:42.000Z,331
2019-04-23T11:09:55.005Z,331
2019-04-23T11:11:07.000Z,337
2019-04-23T11:12:19.000Z,337
2019-04-23T11:13:31.000Z,331
2019-04-23T11:14:43.000Z,326
2019-04-23T11:15:55.000Z,331
2019-04-23T11:17:08.000Z,326
2019-04-23T11:18:20.405Z,331
2019-04-23T11:19:32.609Z,337
2019-04-23T11:20:44.000Z,337
2019-04-23T11:21:56.981Z,337
2019-04-23T11:23:09.000Z,343
2019-04-23T11:25:33.000Z,303
2019-04-23T11:26:45.000Z,337
2019-04-23T11:27:57.945Z,326
2019-04-23T11:29:10.000Z,337
2019-04-23T11:30:22.000Z,376
2019-04-23T11:31:34.000Z,455
2019-04-23T11:32:46.000Z,421
2019-04-23T11:33:58.000Z,388
2019-04-23T11:35:11.000Z,365
2019-04-23T11:37:35.000Z,303
2019-04-23T11:38:47.690Z,298
2019-04-23T11:39:59.000Z,343
2019-04-23T11:41:12.000Z,360
2019-04-23T11:42:24.266Z,405
2019-04-23T11:43:36.000Z,478
2019-04-23T11:44:48.000Z,489
2019-04-23T11:46:00.000Z,438
2019-04-23T11:47:13.000Z,427
2019-04-23T11:48:25.000Z,365
2019-04-23T11:49:37.432Z,371
2019-04-23T11:50:49.000Z,343
2019-04-23T11:52:01.000Z,365
2019-04-23T11:53:13.000Z,382
2019-04-23T11:54:26.000Z,427
2019-04-23T11:56:50.000Z,421
2019-04-23T11:58:02.780Z,393
2019-04-23T11:59:14.000Z,343
2019-04-23T12:00:27.000Z,315
2019-04-23T12:01:39.354Z,303
2019-04-23T12:02:51.000Z,303
2019-04-23T12:04:03.000Z,343
2019-04-23T12:05:15.000Z,393
2019-04-23T12:06:28.000Z,495
2019-04-23T12:07:40.000Z,545
2019-04-23T12:08:52.000Z,579
2019-04-23T12:10:04.708Z,528
2019-04-23T12:11:16.000Z,478
2019-04-23T12:13:41.000Z,382
2019-04-23T12:14:53.000Z,388
2019-04-23T12:16:05.000Z,388
2019-04-23T12:17:17.000Z,421
2019-04-23T12:18:30.000Z,393
2019-04-23T12:19:42.000Z,382
2019-04-23T12:20:54.000Z,371
2019-04-23T12:22:06.000Z,331
2019-04-23T12:23:18.000Z,343
2019-04-23T12:24:31.000Z,455
2019-04-23T12:25:43.000Z,534
2019-04-23T12:26:55.000Z,461
2019-04-23T12:28:07.000Z,478
2019-04-23T12:29:19.000Z,450
2019-04-23T12:30:31.000Z,472
2019-04-23T12:31:44.000Z,596
2019-04-23T12:32:56.390Z,545
2019-04-23T12:34:08.584Z,489
2019-04-23T12:35:20.000Z,540
2019-04-23T12:37:45.162Z,511
2019-04-23T12:38:57.000Z,444
2019-04-23T12:40:09.000Z,455
2019-04-23T12:41:21.000Z,506
2019-04-23T12:42:33.000Z,523
2019-04-23T12:43:46.125Z,534
2019-04-23T12:44:58.000Z,500
2019-04-23T12:46:10.000Z,495
2019-04-23T12:47:22.000Z,511
2019-04-23T12:48:34.000Z,528
2019-04-23T12:49:47.000Z,489
2019-04-23T12:50:59.294Z,438
2019-04-23T12:52:11.000Z,461
2019-04-23T12:53:23.000Z,601
2019-04-23T12:54:35.000Z,579
2019-04-23T12:55:48.000Z,500
2019-04-23T12:57:00.000Z,472
2019-04-23T12:58:12.455Z,427
2019-04-23T12:59:24.644Z,376
2019-04-23T13:01:49.000Z,337
2019-04-23T13:03:01.000Z,399
2019-04-23T13:04:13.000Z,506
2019-04-23T13:05:25.000Z,635
2019-04-23T13:06:37.808Z,714
2019-04-23T13:07:50.004Z,770
2019-04-23T13:09:02.000Z,748
2019-04-23T13:10:14.386Z,675
2019-04-23T13:11:26.000Z,703
2019-04-23T13:12:38.000Z,624
2019-04-23T13:13:50.968Z,540
2019-04-23T13:15:03.000Z,573
2019-04-23T13:16:15.000Z,607
2019-04-23T13:17:27.000Z,635
2019-04-23T13:18:39.000Z,680
2019-04-23T13:19:51.938Z,691
2019-04-23T13:21:04.000Z,731
2019-04-23T13:22:16.325Z,708
2019-04-23T13:23:28.000Z,675
2019-04-23T13:24:40.000Z,596
2019-04-23T13:25:52.000Z,556
2019-04-23T13:27:05.000Z,528
2019-04-23T13:28:17.000Z,568
2019-04-23T13:29:29.000Z,613
2019-04-23T13:30:41.000Z,663
2019-04-23T13:31:53.878Z,675
2019-04-23T13:33:06.000Z,663
2019-04-23T13:34:18.000Z,658
2019-04-23T13:35:30.455Z,635
2019-04-23T13:37:54.847Z,630
2019-04-23T13:39:07.000Z,630
2019-04-23T13:40:19.000Z,680
2019-04-23T13:41:31.000Z,680
2019-04-23T13:42:43.612Z,658
2019-04-23T13:43:55.811Z,630
2019-04-23T13:45:07.000Z,579
2019-04-23T13:46:20.197Z,545
2019-04-23T13:47:32.000Z,523
2019-04-23T13:48:44.000Z,506
2019-04-23T13:49:56.928Z,489
2019-04-23T13:51:08.000Z,472
2019-04-23T13:52:21.000Z,455
2019-04-23T13:53:33.000Z,495
2019-04-23T13:54:45.000Z,461
2019-04-23T13:55:57.756Z,438
2019-04-23T13:57:09.000Z,461
2019-04-23T13:58:22.140Z,483
2019-04-23T13:59:34.000Z,506
2019-04-23T14:00:46.000Z,489
2019-04-23T14:01:58.000Z,489
2019-04-23T14:03:10.000Z,478
2019-04-23T14:04:23.000Z,438
2019-04-23T14:05:35.000Z,365
2019-04-23T14:06:47.000Z,303
2019-04-23T14:07:59.069Z,286
2019-04-23T14:09:11.000Z,343
2019-04-23T14:10:24.000Z,450
2019-04-23T14:11:36.267Z,433
2019-04-23T14:14:00.000Z,348
2019-04-23T14:15:12.000Z,315
2019-04-23T14:16:25.000Z,286
2019-04-23T14:17:37.000Z,281
2019-04-23T14:18:49.000Z,264
2019-04-23T14:20:01.627Z,281
2019-04-23T14:21:13.000Z,326
2019-04-23T14:22:25.000Z,365
2019-04-23T14:23:38.000Z,388
2019-04-23T14:24:50.000Z,421
2019-04-23T14:26:02.000Z,399
2019-04-23T14:27:14.000Z,382
2019-04-23T14:28:26.976Z,393
2019-04-23T14:29:39.000Z,399
2019-04-23T14:30:51.000Z,371
2019-04-23T14:32:03.564Z,360
2019-04-23T14:33:15.000Z,326
2019-04-23T14:34:27.947Z,286
2019-04-23T14:35:40.000Z,270
2019-04-23T14:38:04.000Z,230
2019-04-23T14:39:16.000Z,196
2019-04-23T14:40:28.000Z,191
2019-04-23T14:41:41.000Z,219
2019-04-23T14:42:53.000Z,258
2019-04-23T14:44:05.494Z,286
2019-04-23T14:45:17.000Z,315
2019-04-23T14:46:29.883Z,348
2019-04-23T14:47:42.000Z,371
2019-04-23T14:48:53.000Z,331
2019-04-23T14:50:06.000Z,286
2019-04-23T14:51:18.000Z,253
2019-04-23T14:52:30.000Z,225
2019-04-23T14:53:43.000Z,208
2019-04-23T14:54:55.232Z,196
2019-04-23T14:56:07.917Z,191
2019-04-23T14:57:19.621Z,208
2019-04-23T14:58:31.818Z,213
2019-04-23T14:59:43.000Z,191
2019-04-23T15:02:08.039Z,185
2019-04-23T15:03:20.000Z,163
2019-04-23T15:04:32.781Z,146
2019-04-23T15:05:44.000Z,146
2019-04-23T15:06:57.000Z,140
2019-04-23T15:08:09.364Z,140
2019-04-23T15:09:21.000Z,151
2019-04-23T15:10:33.748Z,163
2019-04-23T15:11:45.941Z,151
2019-04-23T15:12:58.000Z,146
2019-04-23T15:14:10.000Z,135
2019-04-23T15:15:22.544Z,123
2019-04-23T15:16:34.000Z,112
2019-04-23T15:17:46.000Z,112
2019-04-23T15:18:59.104Z,101
2019-04-23T15:20:11.029Z,101
2019-04-23T15:21:23.496Z,106
2019-04-23T15:22:35.000Z,106
2019-04-23T15:23:47.000Z,106
2019-04-23T15:25:00.000Z,106
2019-04-23T15:26:12.000Z,106
2019-04-23T15:27:24.000Z,101
2019-04-23T15:28:36.000Z,90
2019-04-23T15:29:48.000Z,78
2019-04-23T15:31:01.000Z,73
2019-04-23T15:32:13.233Z,78
2019-04-23T15:33:25.000Z,84
2019-04-23T15:34:37.000Z,90
2019-04-23T15:35:49.000Z,90
2019-04-23T15:37:01.000Z,90
2019-04-23T15:38:14.199Z,90
2019-04-23T15:39:26.000Z,95
2019-04-23T15:40:38.000Z,106
2019-04-23T15:41:50.000Z,106
2019-04-23T15:43:02.000Z,106
2019-04-23T15:44:15.169Z,101
2019-04-23T15:45:27.000Z,95
2019-04-23T15:46:39.055Z,78
2019-04-23T15:47:51.752Z,78
2019-04-23T15:49:03.000Z,73
2019-04-23T15:50:16.000Z,67
2019-04-23T15:51:28.000Z,67
2019-04-23T15:52:40.000Z,67
2019-04-23T15:53:52.000Z,61
2019-04-23T15:55:04.000Z,56
2019-04-23T15:56:17.000Z,56
2019-04-23T15:57:29.000Z,50
2019-04-23T15:58:41.000Z,50
2019-04-23T15:59:53.000Z,56
2019-04-23T16:02:18.000Z,56
2019-04-23T16:03:30.000Z,56
2019-04-23T16:04:42.000Z,56
2019-04-23T16:05:54.000Z,61
2019-04-23T16:07:06.839Z,67
2019-04-23T16:08:19.033Z,67
2019-04-23T16:09:31.241Z,73
2019-04-23T16:10:43.000Z,67
2019-04-23T16:11:55.000Z,67
2019-04-23T16:14:19.000Z,50
2019-04-23T16:15:32.000Z,50
2019-04-23T16:16:44.000Z,45
2019-04-23T16:17:56.000Z,45
2019-04-23T16:19:08.000Z,45
2019-04-23T16:20:20.972Z,50
2019-04-23T16:21:33.167Z,50
2019-04-23T16:22:45.036Z,56
2019-04-23T16:23:57.000Z,56
2019-04-23T16:25:09.743Z,56
2019-04-23T16:26:21.000Z,50
2019-04-23T16:27:34.000Z,45
2019-04-23T16:28:46.323Z,50
2019-04-23T16:29:58.000Z,50
2019-04-23T16:31:10.000Z,50
2019-04-23T16:32:22.000Z,56
2019-04-23T16:33:35.000Z,56
2019-04-23T16:34:47.289Z,56
2019-04-23T16:35:59.482Z,56
2019-04-23T16:37:11.691Z,45
2019-04-23T16:38:23.000Z,50
2019-04-23T16:39:36.000Z,45
2019-04-23T16:40:48.000Z,50
2019-04-23T16:42:00.000Z,50
2019-04-23T16:43:12.000Z,39
2019-04-23T16:44:24.844Z,39
2019-04-23T16:45:37.000Z,39
2019-04-23T16:46:49.279Z,39
2019-04-23T16:48:01.000Z,39
2019-04-23T16:50:25.808Z,33
2019-04-23T16:51:37.000Z,28
2019-04-23T16:52:50.000Z,28
2019-04-23T16:54:02.000Z,33
2019-04-23T16:55:14.000Z,39
2019-04-23T16:56:26.783Z,39
2019-04-23T16:57:38.966Z,39
2019-04-23T16:58:51.000Z,28
2019-04-23T17:00:03.000Z,28
2019-04-23T17:02:27.000Z,28
2019-04-23T17:03:39.000Z,28
2019-04-23T17:04:52.129Z,33
2019-04-23T17:06:04.000Z,28
2019-04-23T17:07:16.000Z,22
2019-04-23T17:08:28.713Z,22
2019-04-23T17:09:40.000Z,28
2019-04-23T17:10:53.000Z,28
2019-04-23T17:12:05.286Z,22
2019-04-23T17:13:17.000Z,16
2019-04-23T17:14:29.000Z,16
2019-04-23T17:15:41.000Z,16
2019-04-23T17:16:54.000Z,22
2019-04-23T17:18:06.000Z,22
2019-04-23T17:20:30.006Z,22
2019-04-23T17:21:42.000Z,28
2019-04-23T17:22:55.000Z,28
2019-04-23T17:24:07.000Z,22
2019-04-23T17:26:31.598Z,16
2019-04-23T17:27:43.000Z,16
2019-04-23T17:28:55.000Z,16
2019-04-23T17:30:08.000Z,16
2019-04-23T17:31:20.000Z,16